Maroudio — V7BB7 — position and weather

sailwx.info

Track history (hours):
 
Tides and Currents Weather Stations Pressure Air Temp Water Temp Dewpoint Dewpoint Depression Visibility Wind Speed Wind Dir Waves Ship Positions

Maroudio

Last reported at 2017-Oct-13 16:28 UTC. Time now 2017-Oct-18 17:01 UTC.
Position N 40°08' W 031°12'.

Length 190 m.

Type: Cargo ship. MMSI: 538007262.

Date/timePositionNaut miles runAvg speedWind from/ knotsBaromVisibWave heightAir tempDewpointWater temp
2017-Oct-13 16:28N 40°08' W 031°12'611.8
2017-Oct-13 15:57N 40°07' W 031°04'6511.8
2017-Oct-13 10:29N 39°56' W 029°41'612.1
2017-Oct-13 10:00N 39°54' W 029°34'612.1
2017-Oct-13 09:29N 39°53' W 029°26'612.6
2017-Oct-13 09:00N 39°52' W 029°18'812.8
2017-Oct-13 08:24N 39°51' W 029°08'612.5
2017-Oct-13 07:54N 39°50' W 028°60'512.5
2017-Oct-13 07:30N 39°49' W 028°53'712.8
2017-Oct-13 06:57N 39°48' W 028°44'813.1
2017-Oct-13 06:21N 39°46' W 028°34'513.0
2017-Oct-13 05:59N 39°45' W 028°28'613.4
2017-Oct-13 05:30N 39°44' W 028°20'713.2
2017-Oct-13 04:57N 39°43' W 028°11'613.5
2017-Oct-13 04:29N 39°42' W 028°03'613.4
2017-Oct-13 04:00N 39°41' W 027°54'713.6
2017-Oct-13 03:30N 39°39' W 027°46'3413.6
2017-Oct-13 01:00N 39°33' W 027°02'2313.4
2017-Oct-12 23:16N 39°29' W 026°33'413.0
2017-Oct-12 22:55N 39°28' W 026°27'512.9
2017-Oct-12 22:30N 39°27' W 026°20'713.1
2017-Oct-12 22:00N 39°26' W 026°12'713.3
2017-Oct-12 21:30N 39°25' W 026°03'1413.3
2017-Oct-12 20:29N 39°22' W 025°46'613.0
2017-Oct-12 19:59N 39°21' W 025°38'613.0
2017-Oct-12 19:30N 39°20' W 025°30'613.0
2017-Oct-12 19:00N 39°19' W 025°22'713.0
2017-Oct-12 18:30N 39°18' W 025°13'712.9
2017-Oct-12 17:58N 39°17' W 025°05'613.1
2017-Oct-12 17:30N 39°16' W 024°57'713.3
2017-Oct-12 16:58N 39°14' W 024°48'813.3
2017-Oct-12 16:22N 39°13' W 024°38'513.5
2017-Oct-12 16:00N 39°12' W 024°31'713.4
2017-Oct-12 15:27N 39°11' W 024°22'613.4
2017-Oct-12 14:58N 39°09' W 024°14'713.0
2017-Oct-12 14:26N 39°08' W 024°05'613.1
2017-Oct-12 14:00N 39°07' W 023°58'713.0
2017-Oct-12 13:29N 39°06' W 023°49'613.3
2017-Oct-12 13:00N 39°05' W 023°41'713.2
2017-Oct-12 12:30N 39°03' W 023°33'1613.3
2017-Oct-12 11:20N 39°01' W 023°13'2113.3
2017-Oct-12 09:47N 38°57' W 022°47'312.7
2017-Oct-12 09:30N 38°57' W 022°43'813.1
2017-Oct-12 08:52N 38°55' W 022°32'513.3
2017-Oct-12 08:29N 38°54' W 022°26'913.5
2017-Oct-12 07:47N 38°52' W 022°14'1913.2
2017-Oct-12 06:19N 38°49' W 021°49'613.4
2017-Oct-12 05:54N 38°48' W 021°42'513.6
2017-Oct-12 05:30N 38°47' W 021°35'4813.8
2017-Oct-12 02:02N 38°38' W 020°35'613.6
2017-Oct-12 01:36N 38°37' W 020°28'213.6
2017-Oct-12 01:25N 38°37' W 020°25'613.6
2017-Oct-12 00:59N 38°36' W 020°17'1113.8
2017-Oct-12 00:13N 38°34' W 020°04'1213.6
2017-Oct-11 23:19N 38°32' W 019°48'2113.3
2017-Oct-11 21:43N 38°28' W 019°22'313.3
2017-Oct-11 21:30N 38°27' W 019°18'4713.2
2017-Oct-11 17:56N 38°19' W 018°19'613.2
2017-Oct-11 17:30N 38°18' W 018°12'23813.6
2017-Oct-11 00:01N 37°35' W 013°15'713.8
2017-Oct-10 23:31N 37°34' W 013°06'713.9
2017-Oct-10 23:01N 37°32' W 012°57'713.8
2017-Oct-10 22:30N 37°31' W 012°49'713.8
2017-Oct-10 22:00N 37°30' W 012°40'713.9
2017-Oct-10 21:30N 37°29' W 012°32'713.8
2017-Oct-10 21:01N 37°28' W 012°23'713.9
2017-Oct-10 20:31N 37°26' W 012°14'713.9
2017-Oct-10 20:01N 37°25' W 012°06'713.9
2017-Oct-10 19:30N 37°23' W 011°57'713.7
2017-Oct-10 19:00N 37°22' W 011°49'713.6
2017-Oct-10 18:31N 37°21' W 011°40'713.7
2017-Oct-10 18:01N 37°20' W 011°32'713.6
2017-Oct-10 17:31N 37°19' W 011°23'713.6
2017-Oct-10 17:01N 37°18' W 011°15'713.7
2017-Oct-10 16:31N 37°16' W 011°07'713.7
2017-Oct-10 16:01N 37°15' W 010°58'713.5
2017-Oct-10 15:31N 37°14' W 010°50'713.1
2017-Oct-10 15:01N 37°13' W 010°42'1413.7
2017-Oct-10 14:00N 37°11' W 010°25'713.8
2017-Oct-10 13:30N 37°10' W 010°16'713.9
2017-Oct-10 13:01N 37°09' W 010°07'713.9
2017-Oct-10 12:30N 37°08' W 009°59'713.6
2017-Oct-10 12:01N 37°07' W 009°50'713.9
2017-Oct-10 11:31N 37°06' W 009°42'713.8
2017-Oct-10 11:00N 37°03' W 009°34'713.4
2017-Oct-10 10:30N 37°02' W 009°26'611.5
2017-Oct-10 10:00N 36°57' W 009°21'612.8
2017-Oct-10 09:30N 36°52' W 009°18'612.6
2017-Oct-10 09:00N 36°47' W 009°12'713.5
2017-Oct-10 08:30N 36°44' W 009°05'713.6
2017-Oct-10 08:00N 36°41' W 008°57'713.6
2017-Oct-10 07:30N 36°39' W 008°49'713.8
2017-Oct-10 07:00N 36°36' W 008°41'714.0
2017-Oct-10 06:30N 36°34' W 008°33'713.9
2017-Oct-10 06:00N 36°32' W 008°25'713.8
2017-Oct-10 05:30N 36°30' W 008°16'713.7
2017-Oct-10 04:59N 36°27' W 008°08'714.0
2017-Oct-10 04:30N 36°24' W 008°00'714.0
2017-Oct-10 04:00N 36°21' W 007°53'713.5
2017-Oct-10 03:30N 36°18' W 007°45'713.8
2017-Oct-10 03:00N 36°16' W 007°37'713.6
2017-Oct-10 02:30N 36°14' W 007°29'914.4
2017-Oct-10 01:53N 36°12' W 007°18'713.7
2017-Oct-10 01:23N 36°10' W 007°10'614.5
2017-Oct-10 01:00N 36°09' W 007°03'31212.6
2017-Oct-09 00:10N 36°38' W 000°38'813.4
2017-Oct-08 23:35N 36°40' W 000°28'213.6
2017-Oct-08 23:25N 36°40' W 000°25'2613.7
2017-Oct-08 21:33N 36°45' E 000°06'113.8
2017-Oct-08 21:30N 36°46' E 000°07'713.7
2017-Oct-08 21:00N 36°47' E 000°15'713.8
2017-Oct-08 20:30N 36°48' E 000°24'713.8
2017-Oct-08 19:59N 36°49' E 000°32'3114.2
2017-Oct-08 17:46N 36°54' E 001°11'414.0
2017-Oct-08 17:30N 36°55' E 001°16'713.9
2017-Oct-08 17:00N 36°56' E 001°24'713.6
2017-Oct-08 16:30N 36°57' E 001°33'713.5
2017-Oct-08 16:00N 36°58' E 001°41'713.5
2017-Oct-08 15:30N 36°58' E 001°50'913.6
2017-Oct-08 14:50N 36°58' E 002°01'55411.5
2017-Oct-06 14:33N 36°30' E 013°31'012.3
2017-Oct-06 14:30N 36°29' E 013°32'612.6
2017-Oct-06 14:00N 36°26' E 013°39'612.7
2017-Oct-06 13:30N 36°23' E 013°46'612.8
2017-Oct-06 13:00N 36°20' E 013°53'612.7
2017-Oct-06 12:30N 36°17' E 013°60'612.6
2017-Oct-06 12:00N 36°14' E 014°07'612.6
2017-Oct-06 11:31N 36°11' E 014°13'612.6
2017-Oct-06 11:00N 36°08' E 014°20'612.3
2017-Oct-06 10:30N 36°05' E 014°27'612.5
2017-Oct-06 10:00N 35°60' E 014°31'611.9
2017-Oct-06 09:30N 35°55' E 014°36'5 8.7
2017-Oct-06 08:58N 35°51' E 014°37'1 0.4
2017-Oct-06 05:56N 35°50' E 014°36'0 0.1
2017-Oct-06 05:26N 35°50' E 014°36'0 0.0
2017-Oct-06 04:56N 35°50' E 014°36'0 0.1
2017-Oct-06 04:29N 35°50' E 014°36'0 0.0
2017-Oct-06 03:53N 35°50' E 014°36'0 0.1
2017-Oct-06 03:20N 35°50' E 014°36'0 0.1
2017-Oct-06 02:53N 35°50' E 014°36'0 0.0
2017-Oct-06 02:29N 35°50' E 014°36'0 0.8
2017-Oct-06 02:00N 35°49' E 014°36'9 8.9
2017-Oct-06 01:00N 35°46' E 014°26'510.1
2017-Oct-06 00:30N 35°49' E 014°21'611.3
2017-Oct-06 00:00N 35°54' E 014°18'3 5.2
2017-Oct-05 23:30N 35°56' E 014°16'0 0.6
2017-Oct-05 22:59N 35°57' E 014°16'0 0.5
2017-Oct-05 22:30N 35°57' E 014°16'1 2.0
2017-Oct-05 22:00N 35°56' E 014°15'5 9.5
2017-Oct-05 21:30N 35°54' E 014°10'3 5.0
2017-Oct-05 20:58N 35°53' E 014°07'0 0.6
2017-Oct-05 20:28N 35°53' E 014°07'0 0.7
2017-Oct-05 19:58N 35°53' E 014°08'0 0.7
2017-Oct-05 19:28N 35°53' E 014°08'0 0.7
2017-Oct-05 18:58N 35°54' E 014°08'0 0.6
2017-Oct-05 18:28N 35°54' E 014°09'0 0.7
2017-Oct-05 17:58N 35°54' E 014°09'0 0.6
2017-Oct-05 17:28N 35°54' E 014°09'0 0.6
2017-Oct-05 16:58N 35°54' E 014°10'1 0.5
2017-Oct-05 15:28N 35°54' E 014°11'0 0.4
2017-Oct-05 14:58N 35°54' E 014°11'0 0.5
2017-Oct-05 14:28N 35°54' E 014°11'0 0.4
2017-Oct-05 13:58N 35°54' E 014°11'0 0.5
2017-Oct-05 13:28N 35°54' E 014°12'0 0.4
2017-Oct-05 12:58N 35°54' E 014°12'0 0.4
2017-Oct-05 12:28N 35°54' E 014°12'0 0.5
2017-Oct-05 11:58N 35°54' E 014°12'0 0.5
2017-Oct-05 11:31N 35°54' E 014°13'0 0.4
2017-Oct-05 11:00N 35°54' E 014°13'0 0.4
2017-Oct-05 10:30N 35°54' E 014°13'0 0.4
2017-Oct-05 10:00N 35°54' E 014°13'0 0.6
2017-Oct-05 09:30N 35°54' E 014°14'0 0.5
2017-Oct-05 09:00N 35°54' E 014°14'1 1.2
2017-Oct-05 08:30N 35°54' E 014°14'3 5.9
2017-Oct-05 08:00N 35°52' E 014°17'4 7.7
2017-Oct-05 07:30N 35°49' E 014°20'510.5
2017-Oct-05 07:00N 35°45' E 014°25'611.7
2017-Oct-05 06:30N 35°44' E 014°32'613.0
2017-Oct-05 06:00N 35°44' E 014°40'713.3
2017-Oct-05 05:30N 35°45' E 014°48'43812.7
2017-Oct-03 19:01N 37°20' E 023°40'013.5
2017-Oct-03 19:00N 37°20' E 023°40'713.7
2017-Oct-03 18:30N 37°27' E 023°41'714.0
2017-Oct-03 18:00N 37°34' E 023°41'713.9
2017-Oct-03 17:30N 37°41' E 023°41'713.9
2017-Oct-03 17:00N 37°47' E 023°38'612.4
2017-Oct-03 16:30N 37°53' E 023°36'  
Track history (hours):
 
Tides and Currents Weather Stations Pressure Air Temp Water Temp Dewpoint Dewpoint Depression Visibility Wind Speed Wind Dir Waves Ship Positions

Maroudio

Last reported at 2017-Oct-13 16:28 UTC. Time now 2017-Oct-18 17:01 UTC.
Position N 40°08' W 031°12'.

Length 190 m.

Type: Cargo ship. MMSI: 538007262.

Date/timePositionNaut miles runAvg speedWind from/ knotsBaromVisibWave heightAir tempDewpointWater temp
2017-Oct-13 16:28N 40°08' W 031°12'611.8
2017-Oct-13 15:57N 40°07' W 031°04'6511.8
2017-Oct-13 10:29N 39°56' W 029°41'612.1
2017-Oct-13 10:00N 39°54' W 029°34'612.1
2017-Oct-13 09:29N 39°53' W 029°26'612.6
2017-Oct-13 09:00N 39°52' W 029°18'812.8
2017-Oct-13 08:24N 39°51' W 029°08'612.5
2017-Oct-13 07:54N 39°50' W 028°60'512.5
2017-Oct-13 07:30N 39°49' W 028°53'712.8
2017-Oct-13 06:57N 39°48' W 028°44'813.1
2017-Oct-13 06:21N 39°46' W 028°34'513.0
2017-Oct-13 05:59N 39°45' W 028°28'613.4
2017-Oct-13 05:30N 39°44' W 028°20'713.2
2017-Oct-13 04:57N 39°43' W 028°11'613.5
2017-Oct-13 04:29N 39°42' W 028°03'613.4
2017-Oct-13 04:00N 39°41' W 027°54'713.6
2017-Oct-13 03:30N 39°39' W 027°46'3413.6
2017-Oct-13 01:00N 39°33' W 027°02'2313.4
2017-Oct-12 23:16N 39°29' W 026°33'413.0
2017-Oct-12 22:55N 39°28' W 026°27'512.9
2017-Oct-12 22:30N 39°27' W 026°20'713.1
2017-Oct-12 22:00N 39°26' W 026°12'713.3
2017-Oct-12 21:30N 39°25' W 026°03'1413.3
2017-Oct-12 20:29N 39°22' W 025°46'613.0
2017-Oct-12 19:59N 39°21' W 025°38'613.0
2017-Oct-12 19:30N 39°20' W 025°30'613.0
2017-Oct-12 19:00N 39°19' W 025°22'713.0
2017-Oct-12 18:30N 39°18' W 025°13'712.9
2017-Oct-12 17:58N 39°17' W 025°05'613.1
2017-Oct-12 17:30N 39°16' W 024°57'713.3
2017-Oct-12 16:58N 39°14' W 024°48'813.3
2017-Oct-12 16:22N 39°13' W 024°38'513.5
2017-Oct-12 16:00N 39°12' W 024°31'713.4
2017-Oct-12 15:27N 39°11' W 024°22'613.4
2017-Oct-12 14:58N 39°09' W 024°14'713.0
2017-Oct-12 14:26N 39°08' W 024°05'613.1
2017-Oct-12 14:00N 39°07' W 023°58'713.0
2017-Oct-12 13:29N 39°06' W 023°49'613.3
2017-Oct-12 13:00N 39°05' W 023°41'713.2
2017-Oct-12 12:30N 39°03' W 023°33'1613.3
2017-Oct-12 11:20N 39°01' W 023°13'2113.3
2017-Oct-12 09:47N 38°57' W 022°47'312.7
2017-Oct-12 09:30N 38°57' W 022°43'813.1
2017-Oct-12 08:52N 38°55' W 022°32'513.3
2017-Oct-12 08:29N 38°54' W 022°26'913.5
2017-Oct-12 07:47N 38°52' W 022°14'1913.2
2017-Oct-12 06:19N 38°49' W 021°49'613.4
2017-Oct-12 05:54N 38°48' W 021°42'513.6
2017-Oct-12 05:30N 38°47' W 021°35'4813.8
2017-Oct-12 02:02N 38°38' W 020°35'613.6
2017-Oct-12 01:36N 38°37' W 020°28'213.6
2017-Oct-12 01:25N 38°37' W 020°25'613.6
2017-Oct-12 00:59N 38°36' W 020°17'1113.8
2017-Oct-12 00:13N 38°34' W 020°04'1213.6
2017-Oct-11 23:19N 38°32' W 019°48'2113.3
2017-Oct-11 21:43N 38°28' W 019°22'313.3
2017-Oct-11 21:30N 38°27' W 019°18'4713.2
2017-Oct-11 17:56N 38°19' W 018°19'613.2
2017-Oct-11 17:30N 38°18' W 018°12'23813.6
2017-Oct-11 00:01N 37°35' W 013°15'713.8
2017-Oct-10 23:31N 37°34' W 013°06'713.9
2017-Oct-10 23:01N 37°32' W 012°57'713.8
2017-Oct-10 22:30N 37°31' W 012°49'713.8
2017-Oct-10 22:00N 37°30' W 012°40'713.9
2017-Oct-10 21:30N 37°29' W 012°32'713.8
2017-Oct-10 21:01N 37°28' W 012°23'713.9
2017-Oct-10 20:31N 37°26' W 012°14'713.9
2017-Oct-10 20:01N 37°25' W 012°06'713.9
2017-Oct-10 19:30N 37°23' W 011°57'713.7
2017-Oct-10 19:00N 37°22' W 011°49'713.6
2017-Oct-10 18:31N 37°21' W 011°40'713.7
2017-Oct-10 18:01N 37°20' W 011°32'713.6
2017-Oct-10 17:31N 37°19' W 011°23'713.6
2017-Oct-10 17:01N 37°18' W 011°15'713.7
2017-Oct-10 16:31N 37°16' W 011°07'713.7
2017-Oct-10 16:01N 37°15' W 010°58'713.5
2017-Oct-10 15:31N 37°14' W 010°50'713.1
2017-Oct-10 15:01N 37°13' W 010°42'1413.7
2017-Oct-10 14:00N 37°11' W 010°25'713.8
2017-Oct-10 13:30N 37°10' W 010°16'713.9
2017-Oct-10 13:01N 37°09' W 010°07'713.9
2017-Oct-10 12:30N 37°08' W 009°59'713.6
2017-Oct-10 12:01N 37°07' W 009°50'713.9
2017-Oct-10 11:31N 37°06' W 009°42'713.8
2017-Oct-10 11:00N 37°03' W 009°34'713.4
2017-Oct-10 10:30N 37°02' W 009°26'611.5
2017-Oct-10 10:00N 36°57' W 009°21'612.8
2017-Oct-10 09:30N 36°52' W 009°18'612.6
2017-Oct-10 09:00N 36°47' W 009°12'713.5
2017-Oct-10 08:30N 36°44' W 009°05'713.6
2017-Oct-10 08:00N 36°41' W 008°57'713.6
2017-Oct-10 07:30N 36°39' W 008°49'713.8
2017-Oct-10 07:00N 36°36' W 008°41'714.0
2017-Oct-10 06:30N 36°34' W 008°33'713.9
2017-Oct-10 06:00N 36°32' W 008°25'713.8
2017-Oct-10 05:30N 36°30' W 008°16'713.7
2017-Oct-10 04:59N 36°27' W 008°08'714.0
2017-Oct-10 04:30N 36°24' W 008°00'714.0
2017-Oct-10 04:00N 36°21' W 007°53'713.5
2017-Oct-10 03:30N 36°18' W 007°45'713.8
2017-Oct-10 03:00N 36°16' W 007°37'713.6
2017-Oct-10 02:30N 36°14' W 007°29'914.4
2017-Oct-10 01:53N 36°12' W 007°18'713.7
2017-Oct-10 01:23N 36°10' W 007°10'614.5
2017-Oct-10 01:00N 36°09' W 007°03'31212.6
2017-Oct-09 00:10N 36°38' W 000°38'813.4
2017-Oct-08 23:35N 36°40' W 000°28'213.6
2017-Oct-08 23:25N 36°40' W 000°25'2613.7
2017-Oct-08 21:33N 36°45' E 000°06'113.8
2017-Oct-08 21:30N 36°46' E 000°07'713.7
2017-Oct-08 21:00N 36°47' E 000°15'713.8
2017-Oct-08 20:30N 36°48' E 000°24'713.8
2017-Oct-08 19:59N 36°49' E 000°32'3114.2
2017-Oct-08 17:46N 36°54' E 001°11'414.0
2017-Oct-08 17:30N 36°55' E 001°16'713.9
2017-Oct-08 17:00N 36°56' E 001°24'713.6
2017-Oct-08 16:30N 36°57' E 001°33'713.5
2017-Oct-08 16:00N 36°58' E 001°41'713.5
2017-Oct-08 15:30N 36°58' E 001°50'913.6
2017-Oct-08 14:50N 36°58' E 002°01'55411.5
2017-Oct-06 14:33N 36°30' E 013°31'012.3
2017-Oct-06 14:30N 36°29' E 013°32'612.6
2017-Oct-06 14:00N 36°26' E 013°39'612.7
2017-Oct-06 13:30N 36°23' E 013°46'612.8
2017-Oct-06 13:00N 36°20' E 013°53'612.7
2017-Oct-06 12:30N 36°17' E 013°60'612.6
2017-Oct-06 12:00N 36°14' E 014°07'612.6
2017-Oct-06 11:31N 36°11' E 014°13'612.6
2017-Oct-06 11:00N 36°08' E 014°20'612.3
2017-Oct-06 10:30N 36°05' E 014°27'612.5
2017-Oct-06 10:00N 35°60' E 014°31'611.9
2017-Oct-06 09:30N 35°55' E 014°36'5 8.7
2017-Oct-06 08:58N 35°51' E 014°37'1 0.4
2017-Oct-06 05:56N 35°50' E 014°36'0 0.1
2017-Oct-06 05:26N 35°50' E 014°36'0 0.0
2017-Oct-06 04:56N 35°50' E 014°36'0 0.1
2017-Oct-06 04:29N 35°50' E 014°36'0 0.0
2017-Oct-06 03:53N 35°50' E 014°36'0 0.1
2017-Oct-06 03:20N 35°50' E 014°36'0 0.1
2017-Oct-06 02:53N 35°50' E 014°36'0 0.0
2017-Oct-06 02:29N 35°50' E 014°36'0 0.8
2017-Oct-06 02:00N 35°49' E 014°36'9 8.9
2017-Oct-06 01:00N 35°46' E 014°26'510.1
2017-Oct-06 00:30N 35°49' E 014°21'611.3
2017-Oct-06 00:00N 35°54' E 014°18'3 5.2
2017-Oct-05 23:30N 35°56' E 014°16'0 0.6
2017-Oct-05 22:59N 35°57' E 014°16'0 0.5
2017-Oct-05 22:30N 35°57' E 014°16'1 2.0
2017-Oct-05 22:00N 35°56' E 014°15'5 9.5
2017-Oct-05 21:30N 35°54' E 014°10'3 5.0
2017-Oct-05 20:58N 35°53' E 014°07'0 0.6
2017-Oct-05 20:28N 35°53' E 014°07'0 0.7
2017-Oct-05 19:58N 35°53' E 014°08'0 0.7
2017-Oct-05 19:28N 35°53' E 014°08'0 0.7
2017-Oct-05 18:58N 35°54' E 014°08'0 0.6
2017-Oct-05 18:28N 35°54' E 014°09'0 0.7
2017-Oct-05 17:58N 35°54' E 014°09'0 0.6
2017-Oct-05 17:28N 35°54' E 014°09'0 0.6
2017-Oct-05 16:58N 35°54' E 014°10'1 0.5
2017-Oct-05 15:28N 35°54' E 014°11'0 0.4
2017-Oct-05 14:58N 35°54' E 014°11'0 0.5
2017-Oct-05 14:28N 35°54' E 014°11'0 0.4
2017-Oct-05 13:58N 35°54' E 014°11'0 0.5
2017-Oct-05 13:28N 35°54' E 014°12'0 0.4
2017-Oct-05 12:58N 35°54' E 014°12'0 0.4
2017-Oct-05 12:28N 35°54' E 014°12'0 0.5
2017-Oct-05 11:58N 35°54' E 014°12'0 0.5
2017-Oct-05 11:31N 35°54' E 014°13'0 0.4
2017-Oct-05 11:00N 35°54' E 014°13'0 0.4
2017-Oct-05 10:30N 35°54' E 014°13'0 0.4
2017-Oct-05 10:00N 35°54' E 014°13'0 0.6
2017-Oct-05 09:30N 35°54' E 014°14'0 0.5
2017-Oct-05 09:00N 35°54' E 014°14'1 1.2
2017-Oct-05 08:30N 35°54' E 014°14'3 5.9
2017-Oct-05 08:00N 35°52' E 014°17'4 7.7
2017-Oct-05 07:30N 35°49' E 014°20'510.5
2017-Oct-05 07:00N 35°45' E 014°25'611.7
2017-Oct-05 06:30N 35°44' E 014°32'613.0
2017-Oct-05 06:00N 35°44' E 014°40'713.3
2017-Oct-05 05:30N 35°45' E 014°48'43812.7
2017-Oct-03 19:01N 37°20' E 023°40'013.5
2017-Oct-03 19:00N 37°20' E 023°40'713.7
2017-Oct-03 18:30N 37°27' E 023°41'714.0
2017-Oct-03 18:00N 37°34' E 023°41'713.9
2017-Oct-03 17:30N 37°41' E 023°41'713.9
2017-Oct-03 17:00N 37°47' E 023°38'612.4
2017-Oct-03 16:30N 37°53' E 023°36'  

Dump ship's entire track history